»·PEaware :: N4922Z KBOI-KJAC

N4922Z :: KBOI-KJAC

FLIGHT INFORMATION

Flight Status: Arrived
Operator: Privately registered:
United States
More flights under this callsign
Pilot: William N. (15320)
Aircraft: MITSUBISHI MU-2 MARQUISE
(MU2)
More flights by this aircraft type
Origin: KBOI Boise Air Terminal/Gowen
United States
Destination: KJAC Jackson Hole
United States
More flights between these airports :: More routes between these airports
Route: BOI3 NATZZ LEIDY DNW
File this flight plan on PilotEdge
Remarks:
Altitude:
(Current/Filed)
23,000ft
Speed:
(Current/Filed)
275kts
Departed: 19-Mar-18 12:02 PM
Arrived: 19-Mar-18 01:08 PM
Distance/Time
Traveled:
238nm/1:05
Distance/Time
To Go:
Arrived

Flight Plot

Page will automatically refresh every two minutes.

Flight plan parsing failed; only flown route is shown


Map Options




Map Legend


Flown Route
Filed Route
Departure Airport
Arrival Airport
Navaid (VOR, NDB)
Fix

Horizontal Profiles

Position Reports

Time Latitude Longitude Heading Altitude Ground
Speed
19-Mar-18 11:40 43.569098 -116.226573 2 2842ft 0kts
19-Mar-18 11:41 43.569098 -116.226573 2 2842ft 0kts
19-Mar-18 11:42 43.569098 -116.226573 2 2842ft 0kts
19-Mar-18 11:43 43.569099 -116.226573 4 2842ft 0kts
19-Mar-18 11:44 43.569099 -116.226573 3 2842ft 0kts
19-Mar-18 11:45 43.569099 -116.226573 3 2842ft 0kts
19-Mar-18 11:46 43.569099 -116.226573 3 2842ft 0kts
19-Mar-18 11:47 43.569099 -116.226573 3 2842ft 0kts
19-Mar-18 11:48 43.569099 -116.226573 3 2842ft 0kts
19-Mar-18 11:49 43.569099 -116.226573 3 2842ft 0kts
19-Mar-18 11:50 43.569099 -116.226573 3 2842ft 0kts
19-Mar-18 11:51 43.569099 -116.226573 3 2842ft 0kts
19-Mar-18 11:52 43.569099 -116.226573 3 2842ft 0kts
19-Mar-18 11:53 43.569099 -116.226573 3 2842ft 0kts
19-Mar-18 11:54 43.569099 -116.226573 3 2842ft 0kts
19-Mar-18 11:55 43.569099 -116.226573 3 2842ft 0kts
19-Mar-18 11:56 43.569099 -116.226573 2 2842ft 0kts
19-Mar-18 11:57 43.568872 -116.228070 208 2842ft 11kts
19-Mar-18 11:58 43.569931 -116.232415 295 2842ft 21kts
19-Mar-18 11:59 43.570853 -116.235797 233 2842ft 0kts
19-Mar-18 12:00 43.570832 -116.235832 229 2842ft 1kts
19-Mar-18 12:01 43.569359 -116.234283 116 2842ft 62kts
19-Mar-18 12:02 43.559591 -116.180806 91 4340ft 185kts
19-Mar-18 12:03 43.527934 -116.125321 114 6756ft 202kts
19-Mar-18 12:04 43.505756 -116.053581 114 9339ft 207kts
19-Mar-18 12:05 43.482119 -115.980804 111 11847ft 212kts
19-Mar-18 12:06 43.486864 -115.899756 75 14273ft 220kts
19-Mar-18 12:07 43.499284 -115.816112 76 16675ft 229kts
19-Mar-18 12:08 43.511797 -115.728906 76 19042ft 238kts
19-Mar-18 12:09 43.524668 -115.638353 75 21389ft 245kts
19-Mar-18 12:10 43.537987 -115.544273 75 23227ft 275kts
19-Mar-18 12:11 43.554467 -115.427247 76 23239ft 340kts
19-Mar-18 12:12 43.572342 -115.296188 82 23177ft 355kts
19-Mar-18 12:13 43.578160 -115.161734 84 23179ft 353kts
19-Mar-18 12:14 43.583858 -115.026888 84 23195ft 352kts
19-Mar-18 12:15 43.589360 -114.893125 84 23209ft 352kts
19-Mar-18 12:16 43.594742 -114.758412 84 23210ft 352kts
19-Mar-18 12:17 43.599951 -114.624082 84 23211ft 353kts
19-Mar-18 12:18 43.605034 -114.488839 84 23212ft 353kts
19-Mar-18 12:19 43.609952 -114.353745 84 23212ft 354kts
19-Mar-18 12:20 43.614663 -114.219671 85 23206ft 353kts
19-Mar-18 12:21 43.619273 -114.084666 85 23207ft 354kts
19-Mar-18 12:22 43.623744 -113.948631 85 23209ft 354kts
19-Mar-18 12:23 43.628033 -113.813223 85 23209ft 355kts
19-Mar-18 12:24 43.632180 -113.677075 85 23210ft 355kts
19-Mar-18 12:25 43.636218 -113.540706 85 23212ft 356kts
19-Mar-18 12:26 43.640007 -113.404448 85 23212ft 356kts
19-Mar-18 12:27 43.643670 -113.268471 86 23207ft 356kts
19-Mar-18 12:28 43.647170 -113.132337 86 23212ft 355kts
19-Mar-18 12:29 43.650512 -112.996157 86 23217ft 355kts
19-Mar-18 12:30 43.653694 -112.859860 86 23218ft 356kts
19-Mar-18 12:31 43.656621 -112.728179 86 23220ft 356kts
19-Mar-18 12:32 43.659449 -112.592019 86 23222ft 356kts
19-Mar-18 12:33 43.662195 -112.454674 86 22769ft 358kts
19-Mar-18 12:34 43.664732 -112.318811 87 22118ft 356kts
19-Mar-18 12:35 43.667068 -112.184067 87 21340ft 351kts
19-Mar-18 12:36 43.669217 -112.052591 87 20532ft 333kts
19-Mar-18 12:37 43.671118 -111.927265 88 19698ft 322kts
19-Mar-18 12:38 43.672833 -111.805135 88 18864ft 315kts
19-Mar-18 12:39 43.674389 -111.685622 88 18044ft 308kts
19-Mar-18 12:40 43.675789 -111.568475 88 17230ft 303kts
19-Mar-18 12:41 43.677052 -111.452460 88 16428ft 300kts
19-Mar-18 12:42 43.693153 -111.350578 41 16220ft 273kts
19-Mar-18 12:43 43.746545 -111.281750 40 16207ft 260kts
19-Mar-18 12:44 43.799009 -111.214489 40 16208ft 255kts
19-Mar-18 12:45 43.821152 -111.125822 81 16110ft 261kts
19-Mar-18 12:46 43.845802 -111.028892 39 15044ft 279kts
19-Mar-18 12:47 43.864169 -110.934076 86 14990ft 253kts
19-Mar-18 12:48 43.868477 -110.847807 84 14996ft 204kts
19-Mar-18 12:49 43.872575 -110.772331 84 14998ft 194kts
19-Mar-18 12:50 43.876142 -110.697688 85 14954ft 194kts
19-Mar-18 12:51 43.878124 -110.622689 85 14956ft 197kts
19-Mar-18 12:52 43.901617 -110.564948 18 14959ft 185kts
19-Mar-18 12:53 43.951098 -110.535132 17 14411ft 207kts
19-Mar-18 12:54 44.003390 -110.553068 333 13754ft 197kts
19-Mar-18 12:55 44.053030 -110.560377 51 13015ft 212kts
19-Mar-18 12:56 44.023781 -110.511337 195 12223ft 202kts
19-Mar-18 12:57 43.974273 -110.542636 212 11582ft 195kts
19-Mar-18 12:58 43.928122 -110.580202 213 11182ft 184kts
19-Mar-18 12:59 43.884192 -110.610176 200 11187ft 172kts
19-Mar-18 13:00 43.836707 -110.627101 197 10888ft 171kts
19-Mar-18 13:01 43.795413 -110.646057 204 10171ft 149kts
19-Mar-18 13:02 43.758345 -110.664220 204 9425ft 143kts
19-Mar-18 13:03 43.720284 -110.682844 202 8644ft 148kts
19-Mar-18 13:04 43.684112 -110.699188 200 7988ft 123kts
19-Mar-18 13:05 43.652307 -110.715890 202 7297ft 121kts
19-Mar-18 13:06 43.621574 -110.730879 204 6632ft 114kts
19-Mar-18 13:07 43.604080 -110.738898 149 6423ft 16kts
19-Mar-18 13:08 43.603010 -110.738264 199 6423ft 11kts
19-Mar-18 13:09 43.600832 -110.738028 149 6423ft 5kts
19-Mar-18 13:10 43.600657 -110.738184 286 6423ft 0kts

Navigation Log

Ident Type
Flight plan parsing failed, navigation log unavailable